sensor_id;sensor_type;location;lat;lon;timestamp;pressure;altitude;pressure_sealevel;temperature;humidity
62634;BME280;48704;50.534;6.442;2023-03-20T00:00:26;95773.59;;;5.48;100.00
62634;BME280;48704;50.534;6.442;2023-03-20T00:02:52;95765.84;;;5.43;100.00
62634;BME280;48704;50.534;6.442;2023-03-20T00:05:20;95768.38;;;5.37;100.00
62634;BME280;48704;50.534;6.442;2023-03-20T00:07:47;95766.44;;;5.21;100.00
62634;BME280;48704;50.534;6.442;2023-03-20T00:10:14;95779.63;;;5.17;100.00
62634;BME280;48704;50.534;6.442;2023-03-20T00:12:41;95776.72;;;5.08;100.00
62634;BME280;48704;50.534;6.442;2023-03-20T00:15:26;95774.41;;;4.90;100.00
62634;BME280;48704;50.534;6.442;2023-03-20T00:17:53;95786.31;;;4.75;100.00
62634;BME280;48704;50.534;6.442;2023-03-20T00:20:19;95779.56;;;4.76;100.00
62634;BME280;48704;50.534;6.442;2023-03-20T00:22:45;95786.56;;;4.80;100.00
62634;BME280;48704;50.534;6.442;2023-03-20T00:25:15;95788.22;;;4.61;100.00
62634;BME280;48704;50.534;6.442;2023-03-20T00:27:42;95795.63;;;4.48;100.00
62634;BME280;48704;50.534;6.442;2023-03-20T00:30:19;95796.91;;;4.76;100.00
62634;BME280;48704;50.534;6.442;2023-03-20T00:32:47;95803.03;;;4.67;100.00
62634;BME280;48704;50.534;6.442;2023-03-20T00:37:47;95812.13;;;4.97;100.00
62634;BME280;48704;50.534;6.442;2023-03-20T00:40:13;95808.22;;;4.65;100.00
62634;BME280;48704;50.534;6.442;2023-03-20T00:42:38;95813.84;;;4.91;100.00
62634;BME280;48704;50.534;6.442;2023-03-20T00:45:04;95800.00;;;4.78;100.00
62634;BME280;48704;50.534;6.442;2023-03-20T00:47:32;95806.41;;;5.04;100.00
62634;BME280;48704;50.534;6.442;2023-03-20T00:50:01;95814.25;;;5.06;100.00
62634;BME280;48704;50.534;6.442;2023-03-20T00:52:27;95816.81;;;4.84;100.00
62634;BME280;48704;50.534;6.442;2023-03-20T00:54:52;95821.72;;;4.92;100.00
62634;BME280;48704;50.534;6.442;2023-03-20T01:02:20;95827.63;;;5.07;100.00
62634;BME280;48704;50.534;6.442;2023-03-20T01:04:45;95821.25;;;5.10;100.00
62634;BME280;48704;50.534;6.442;2023-03-20T01:07:13;95814.75;;;5.17;100.00
62634;BME280;48704;50.534;6.442;2023-03-20T01:09:39;95823.81;;;5.17;100.00
62634;BME280;48704;50.534;6.442;2023-03-20T01:12:06;95825.56;;;5.24;100.00
62634;BME280;48704;50.534;6.442;2023-03-20T01:14:33;95832.75;;;5.21;100.00
62634;BME280;48704;50.534;6.442;2023-03-20T01:16:58;95837.41;;;5.24;100.00
62634;BME280;48704;50.534;6.442;2023-03-20T01:19:23;95825.38;;;5.31;100.00
62634;BME280;48704;50.534;6.442;2023-03-20T01:21:48;95833.03;;;5.40;100.00
62634;BME280;48704;50.534;6.442;2023-03-20T01:24:14;95828.44;;;5.20;100.00
62634;BME280;48704;50.534;6.442;2023-03-20T01:26:42;95821.50;;;5.28;100.00
62634;BME280;48704;50.534;6.442;2023-03-20T01:31:44;95821.41;;;5.32;100.00
62634;BME280;48704;50.534;6.442;2023-03-20T01:34:10;95817.97;;;5.28;100.00
62634;BME280;48704;50.534;6.442;2023-03-20T01:36:36;95813.91;;;5.32;100.00
62634;BME280;48704;50.534;6.442;2023-03-20T01:39:02;95808.03;;;5.30;100.00
62634;BME280;48704;50.534;6.442;2023-03-20T01:41:28;95789.66;;;5.24;100.00
62634;BME280;48704;50.534;6.442;2023-03-20T01:43:53;95794.75;;;5.25;100.00
62634;BME280;48704;50.534;6.442;2023-03-20T01:46:28;95785.25;;;5.26;100.00
62634;BME280;48704;50.534;6.442;2023-03-20T01:51:29;95777.50;;;5.21;100.00
62634;BME280;48704;50.534;6.442;2023-03-20T01:54:15;95776.63;;;5.24;100.00
62634;BME280;48704;50.534;6.442;2023-03-20T01:59:23;95781.28;;;5.27;100.00
62634;BME280;48704;50.534;6.442;2023-03-20T02:01:50;95778.72;;;5.20;100.00
62634;BME280;48704;50.534;6.442;2023-03-20T02:04:16;95781.47;;;5.20;100.00
62634;BME280;48704;50.534;6.442;2023-03-20T02:06:44;95778.41;;;5.18;100.00
62634;BME280;48704;50.534;6.442;2023-03-20T02:09:10;95785.56;;;5.16;100.00
62634;BME280;48704;50.534;6.442;2023-03-20T02:11:39;95789.75;;;5.20;100.00
62634;BME280;48704;50.534;6.442;2023-03-20T02:14:05;95793.13;;;4.99;100.00
62634;BME280;48704;50.534;6.442;2023-03-20T02:16:31;95798.28;;;5.13;100.00
62634;BME280;48704;50.534;6.442;2023-03-20T02:18:57;95800.00;;;5.07;100.00
62634;BME280;48704;50.534;6.442;2023-03-20T02:22:06;95801.66;;;5.04;100.00
62634;BME280;48704;50.534;6.442;2023-03-20T02:27:40;95788.25;;;5.19;100.00
62634;BME280;48704;50.534;6.442;2023-03-20T02:30:19;95787.41;;;5.06;100.00
62634;BME280;48704;50.534;6.442;2023-03-20T02:36:04;95766.66;;;5.14;100.00
62634;BME280;48704;50.534;6.442;2023-03-20T02:38:38;95774.03;;;5.04;100.00
62634;BME280;48704;50.534;6.442;2023-03-20T02:41:27;95779.03;;;4.81;100.00
62634;BME280;48704;50.534;6.442;2023-03-20T02:49:09;95769.28;;;5.05;100.00
62634;BME280;48704;50.534;6.442;2023-03-20T02:51:49;95766.19;;;5.03;100.00
62634;BME280;48704;50.534;6.442;2023-03-20T02:54:37;95780.16;;;5.12;100.00
62634;BME280;48704;50.534;6.442;2023-03-20T02:59:54;95775.50;;;5.09;100.00
62634;BME280;48704;50.534;6.442;2023-03-20T03:02:30;95773.16;;;5.08;100.00
62634;BME280;48704;50.534;6.442;2023-03-20T03:05:09;95768.63;;;5.01;100.00
62634;BME280;48704;50.534;6.442;2023-03-20T03:07:36;95768.94;;;5.03;100.00
62634;BME280;48704;50.534;6.442;2023-03-20T03:10:10;95768.91;;;4.90;100.00
62634;BME280;48704;50.534;6.442;2023-03-20T03:12:39;95773.22;;;4.91;100.00
62634;BME280;48704;50.534;6.442;2023-03-20T03:15:35;95772.09;;;4.89;100.00
62634;BME280;48704;50.534;6.442;2023-03-20T03:18:02;95770.59;;;4.72;100.00
62634;BME280;48704;50.534;6.442;2023-03-20T03:20:32;95756.91;;;4.68;100.00
62634;BME280;48704;50.534;6.442;2023-03-20T03:22:59;95760.97;;;4.63;100.00
62634;BME280;48704;50.534;6.442;2023-03-20T03:25:29;95755.44;;;4.63;100.00
62634;BME280;48704;50.534;6.442;2023-03-20T03:28:26;95737.34;;;4.62;100.00
62634;BME280;48704;50.534;6.442;2023-03-20T03:30:54;95750.78;;;4.60;100.00
62634;BME280;48704;50.534;6.442;2023-03-20T03:33:27;95755.63;;;4.56;100.00
62634;BME280;48704;50.534;6.442;2023-03-20T03:36:01;95771.94;;;4.51;100.00
62634;BME280;48704;50.534;6.442;2023-03-20T03:38:41;95775.66;;;4.44;100.00
62634;BME280;48704;50.534;6.442;2023-03-20T03:43:52;95786.53;;;4.35;100.00
62634;BME280;48704;50.534;6.442;2023-03-20T03:46:40;95781.44;;;4.33;100.00
62634;BME280;48704;50.534;6.442;2023-03-20T03:49:09;95791.00;;;4.29;100.00
62634;BME280;48704;50.534;6.442;2023-03-20T03:51:39;95807.38;;;4.20;100.00
62634;BME280;48704;50.534;6.442;2023-03-20T03:54:10;95816.88;;;4.02;100.00
62634;BME280;48704;50.534;6.442;2023-03-20T03:56:37;95814.97;;;3.99;100.00
62634;BME280;48704;50.534;6.442;2023-03-20T03:59:09;95820.31;;;4.07;100.00
62634;BME280;48704;50.534;6.442;2023-03-20T04:01:37;95820.66;;;4.09;100.00
62634;BME280;48704;50.534;6.442;2023-03-20T04:04:06;95820.31;;;4.07;100.00
62634;BME280;48704;50.534;6.442;2023-03-20T04:06:34;95813.41;;;4.15;100.00
62634;BME280;48704;50.534;6.442;2023-03-20T04:08:59;95802.38;;;4.15;100.00
62634;BME280;48704;50.534;6.442;2023-03-20T04:11:25;95804.78;;;4.13;100.00
62634;BME280;48704;50.534;6.442;2023-03-20T04:13:53;95793.00;;;4.12;100.00
62634;BME280;48704;50.534;6.442;2023-03-20T04:16:21;95793.75;;;4.13;100.00
62634;BME280;48704;50.534;6.442;2023-03-20T04:18:47;95794.31;;;4.08;100.00
62634;BME280;48704;50.534;6.442;2023-03-20T04:21:12;95786.69;;;4.12;100.00
62634;BME280;48704;50.534;6.442;2023-03-20T04:23:39;95780.53;;;4.08;100.00
62634;BME280;48704;50.534;6.442;2023-03-20T04:26:05;95780.59;;;4.04;100.00
62634;BME280;48704;50.534;6.442;2023-03-20T04:28:30;95788.78;;;4.08;100.00
62634;BME280;48704;50.534;6.442;2023-03-20T04:30:58;95800.13;;;4.10;100.00
62634;BME280;48704;50.534;6.442;2023-03-20T04:33:25;95797.91;;;4.05;100.00
62634;BME280;48704;50.534;6.442;2023-03-20T04:35:51;95787.75;;;4.01;100.00
62634;BME280;48704;50.534;6.442;2023-03-20T04:38:17;95769.03;;;3.93;100.00
62634;BME280;48704;50.534;6.442;2023-03-20T04:40:43;95767.13;;;3.90;100.00
62634;BME280;48704;50.534;6.442;2023-03-20T04:43:10;95772.75;;;3.86;100.00
62634;BME280;48704;50.534;6.442;2023-03-20T04:45:36;95758.34;;;3.79;100.00
62634;BME280;48704;50.534;6.442;2023-03-20T04:48:03;95763.41;;;3.80;100.00
62634;BME280;48704;50.534;6.442;2023-03-20T04:50:28;95766.88;;;3.68;100.00
62634;BME280;48704;50.534;6.442;2023-03-20T04:52:54;95764.28;;;3.61;100.00
62634;BME280;48704;50.534;6.442;2023-03-20T04:55:19;95760.63;;;3.48;100.00
62634;BME280;48704;50.534;6.442;2023-03-20T04:57:46;95765.59;;;3.36;100.00
62634;BME280;48704;50.534;6.442;2023-03-20T05:00:12;95756.00;;;3.61;100.00
62634;BME280;48704;50.534;6.442;2023-03-20T05:02:37;95766.06;;;3.51;100.00
62634;BME280;48704;50.534;6.442;2023-03-20T05:05:03;95766.63;;;3.43;100.00
62634;BME280;48704;50.534;6.442;2023-03-20T05:07:29;95766.34;;;3.37;100.00
62634;BME280;48704;50.534;6.442;2023-03-20T05:09:55;95759.69;;;3.54;100.00
62634;BME280;48704;50.534;6.442;2023-03-20T05:12:20;95755.13;;;3.48;100.00
62634;BME280;48704;50.534;6.442;2023-03-20T05:14:47;95759.97;;;3.76;100.00
62634;BME280;48704;50.534;6.442;2023-03-20T05:17:14;95760.50;;;3.87;100.00
62634;BME280;48704;50.534;6.442;2023-03-20T05:19:39;95758.94;;;3.86;100.00
62634;BME280;48704;50.534;6.442;2023-03-20T05:22:05;95757.63;;;3.75;100.00
62634;BME280;48704;50.534;6.442;2023-03-20T05:24:30;95761.88;;;3.63;100.00
62634;BME280;48704;50.534;6.442;2023-03-20T05:26:56;95760.25;;;3.65;100.00
62634;BME280;48704;50.534;6.442;2023-03-20T05:29:22;95767.53;;;3.56;100.00
62634;BME280;48704;50.534;6.442;2023-03-20T05:31:47;95769.44;;;3.59;100.00
62634;BME280;48704;50.534;6.442;2023-03-20T05:34:12;95764.63;;;3.63;100.00
62634;BME280;48704;50.534;6.442;2023-03-20T05:36:38;95769.94;;;3.54;100.00
62634;BME280;48704;50.534;6.442;2023-03-20T05:39:03;95771.19;;;3.69;100.00
62634;BME280;48704;50.534;6.442;2023-03-20T05:41:29;95782.22;;;3.69;100.00
62634;BME280;48704;50.534;6.442;2023-03-20T05:43:55;95774.94;;;3.75;100.00
62634;BME280;48704;50.534;6.442;2023-03-20T05:46:20;95778.69;;;3.68;100.00
62634;BME280;48704;50.534;6.442;2023-03-20T05:48:46;95774.72;;;3.69;100.00
62634;BME280;48704;50.534;6.442;2023-03-20T05:51:12;95775.28;;;3.61;100.00
62634;BME280;48704;50.534;6.442;2023-03-20T05:53:37;95776.69;;;3.69;100.00
62634;BME280;48704;50.534;6.442;2023-03-20T05:56:03;95773.59;;;3.67;100.00
62634;BME280;48704;50.534;6.442;2023-03-20T05:58:28;95776.00;;;3.65;100.00
62634;BME280;48704;50.534;6.442;2023-03-20T06:00:56;95773.75;;;3.60;100.00
62634;BME280;48704;50.534;6.442;2023-03-20T06:03:21;95772.03;;;3.66;100.00
62634;BME280;48704;50.534;6.442;2023-03-20T06:05:46;95767.09;;;3.57;100.00
62634;BME280;48704;50.534;6.442;2023-03-20T06:08:11;95772.19;;;3.59;100.00
62634;BME280;48704;50.534;6.442;2023-03-20T06:10:37;95764.59;;;3.47;100.00
62634;BME280;48704;50.534;6.442;2023-03-20T06:13:02;95766.22;;;3.44;100.00
62634;BME280;48704;50.534;6.442;2023-03-20T06:15:27;95766.84;;;3.52;100.00
62634;BME280;48704;50.534;6.442;2023-03-20T06:17:54;95772.50;;;3.45;100.00
62634;BME280;48704;50.534;6.442;2023-03-20T06:20:19;95769.47;;;3.39;100.00
62634;BME280;48704;50.534;6.442;2023-03-20T06:22:45;95775.59;;;3.47;100.00
62634;BME280;48704;50.534;6.442;2023-03-20T06:25:11;95773.41;;;3.58;100.00
62634;BME280;48704;50.534;6.442;2023-03-20T06:27:36;95777.69;;;3.59;100.00
62634;BME280;48704;50.534;6.442;2023-03-20T06:30:02;95776.50;;;3.60;100.00
62634;BME280;48704;50.534;6.442;2023-03-20T06:32:27;95773.47;;;3.54;100.00
62634;BME280;48704;50.534;6.442;2023-03-20T06:34:52;95767.03;;;3.61;100.00
62634;BME280;48704;50.534;6.442;2023-03-20T06:37:19;95772.75;;;3.70;100.00
62634;BME280;48704;50.534;6.442;2023-03-20T06:39:44;95758.34;;;3.79;100.00
62634;BME280;48704;50.534;6.442;2023-03-20T06:42:10;95759.28;;;3.72;100.00
62634;BME280;48704;50.534;6.442;2023-03-20T06:44:37;95762.38;;;3.74;100.00
62634;BME280;48704;50.534;6.442;2023-03-20T06:47:02;95764.91;;;3.68;100.00
62634;BME280;48704;50.534;6.442;2023-03-20T06:49:28;95764.63;;;3.79;100.00
62634;BME280;48704;50.534;6.442;2023-03-20T06:51:53;95778.41;;;3.79;100.00
62634;BME280;48704;50.534;6.442;2023-03-20T06:54:19;95766.03;;;3.87;100.00
62634;BME280;48704;50.534;6.442;2023-03-20T06:56:44;95760.81;;;3.73;100.00
62634;BME280;48704;50.534;6.442;2023-03-20T06:59:10;95754.28;;;3.83;100.00
62634;BME280;48704;50.534;6.442;2023-03-20T07:01:36;95755.06;;;3.84;100.00
62634;BME280;48704;50.534;6.442;2023-03-20T07:04:02;95760.75;;;3.77;100.00
62634;BME280;48704;50.534;6.442;2023-03-20T07:06:27;95768.31;;;3.73;100.00
62634;BME280;48704;50.534;6.442;2023-03-20T07:08:53;95771.53;;;3.87;100.00
62634;BME280;48704;50.534;6.442;2023-03-20T07:11:18;95781.81;;;4.03;100.00
62634;BME280;48704;50.534;6.442;2023-03-20T07:13:43;95784.13;;;4.05;100.00
62634;BME280;48704;50.534;6.442;2023-03-20T07:16:09;95787.84;;;3.98;100.00
62634;BME280;48704;50.534;6.442;2023-03-20T07:18:36;95790.47;;;3.85;100.00
62634;BME280;48704;50.534;6.442;2023-03-20T07:21:03;95799.47;;;4.06;100.00
62634;BME280;48704;50.534;6.442;2023-03-20T07:23:31;95807.22;;;4.11;100.00
62634;BME280;48704;50.534;6.442;2023-03-20T07:25:57;95821.53;;;4.06;100.00
62634;BME280;48704;50.534;6.442;2023-03-20T07:28:23;95823.94;;;4.03;100.00
62634;BME280;48704;50.534;6.442;2023-03-20T07:30:48;95834.63;;;4.01;100.00
62634;BME280;48704;50.534;6.442;2023-03-20T07:33:13;95832.72;;;3.98;100.00
62634;BME280;48704;50.534;6.442;2023-03-20T07:35:39;95830.81;;;4.12;100.00
62634;BME280;48704;50.534;6.442;2023-03-20T07:38:04;95835.66;;;4.08;100.00
62634;BME280;48704;50.534;6.442;2023-03-20T07:40:31;95839.00;;;3.99;100.00
62634;BME280;48704;50.534;6.442;2023-03-20T07:42:56;95839.53;;;4.10;100.00
62634;BME280;48704;50.534;6.442;2023-03-20T07:45:22;95832.91;;;4.24;100.00
62634;BME280;48704;50.534;6.442;2023-03-20T07:47:48;95840.47;;;4.03;100.00
62634;BME280;48704;50.534;6.442;2023-03-20T07:50:13;95834.44;;;4.09;100.00
62634;BME280;48704;50.534;6.442;2023-03-20T07:52:39;95840.66;;;4.29;100.00
62634;BME280;48704;50.534;6.442;2023-03-20T07:55:06;95846.63;;;4.44;100.00
62634;BME280;48704;50.534;6.442;2023-03-20T07:57:32;95855.13;;;4.49;100.00
62634;BME280;48704;50.534;6.442;2023-03-20T07:59:58;95857.75;;;4.40;100.00
62634;BME280;48704;50.534;6.442;2023-03-20T08:02:23;95851.53;;;4.52;100.00
62634;BME280;48704;50.534;6.442;2023-03-20T08:04:49;95853.50;;;4.52;100.00
62634;BME280;48704;50.534;6.442;2023-03-20T08:07:14;95859.09;;;4.48;100.00
62634;BME280;48704;50.534;6.442;2023-03-20T08:09:40;95853.69;;;4.45;100.00
62634;BME280;48704;50.534;6.442;2023-03-20T08:12:05;95853.06;;;4.53;100.00
62634;BME280;48704;50.534;6.442;2023-03-20T08:14:30;95853.25;;;4.62;100.00
62634;BME280;48704;50.534;6.442;2023-03-20T08:16:56;95852.63;;;4.55;100.00
62634;BME280;48704;50.534;6.442;2023-03-20T08:19:22;95850.84;;;4.64;100.00
62634;BME280;48704;50.534;6.442;2023-03-20T08:21:49;95864.91;;;4.70;100.00
62634;BME280;48704;50.534;6.442;2023-03-20T08:24:15;95843.94;;;4.73;100.00
62634;BME280;48704;50.534;6.442;2023-03-20T08:26:41;95847.91;;;4.72;100.00
62634;BME280;48704;50.534;6.442;2023-03-20T08:29:28;95852.03;;;4.80;100.00
62634;BME280;48704;50.534;6.442;2023-03-20T08:35:13;95852.91;;;4.77;100.00
62634;BME280;48704;50.534;6.442;2023-03-20T08:37:38;95858.41;;;4.77;100.00
62634;BME280;48704;50.534;6.442;2023-03-20T08:40:05;95857.34;;;4.87;100.00
62634;BME280;48704;50.534;6.442;2023-03-20T08:42:35;95847.09;;;4.87;100.00
62634;BME280;48704;50.534;6.442;2023-03-20T08:45:08;95866.13;;;5.14;100.00
62634;BME280;48704;50.534;6.442;2023-03-20T08:47:36;95859.22;;;5.06;100.00
62634;BME280;48704;50.534;6.442;2023-03-20T08:50:01;95864.06;;;5.02;100.00
62634;BME280;48704;50.534;6.442;2023-03-20T08:52:27;95866.13;;;5.14;100.00
62634;BME280;48704;50.534;6.442;2023-03-20T08:54:52;95855.06;;;5.14;100.00
62634;BME280;48704;50.534;6.442;2023-03-20T08:57:18;95855.81;;;5.44;100.00
62634;BME280;48704;50.534;6.442;2023-03-20T08:59:43;95851.66;;;5.52;100.00
62634;BME280;48704;50.534;6.442;2023-03-20T09:02:10;95843.91;;;5.47;100.00
62634;BME280;48704;50.534;6.442;2023-03-20T09:04:35;95849.22;;;5.54;100.00
62634;BME280;48704;50.534;6.442;2023-03-20T09:07:01;95844.97;;;5.36;100.00
62634;BME280;48704;50.534;6.442;2023-03-20T09:09:27;95844.88;;;5.40;100.00
62634;BME280;48704;50.534;6.442;2023-03-20T09:11:57;95851.94;;;5.41;100.00
62634;BME280;48704;50.534;6.442;2023-03-20T09:14:23;95857.91;;;5.40;100.00
62634;BME280;48704;50.534;6.442;2023-03-20T09:16:49;95851.38;;;5.33;100.00
62634;BME280;48704;50.534;6.442;2023-03-20T09:19:16;95863.97;;;5.34;100.00
62634;BME280;48704;50.534;6.442;2023-03-20T09:21:42;95868.09;;;5.43;100.00
62634;BME280;48704;50.534;6.442;2023-03-20T09:24:07;95870.66;;;5.50;100.00
62634;BME280;48704;50.534;6.442;2023-03-20T09:26:33;95882.66;;;5.72;100.00
62634;BME280;48704;50.534;6.442;2023-03-20T09:28:58;95879.69;;;5.37;100.00
62634;BME280;48704;50.534;6.442;2023-03-20T09:31:24;95884.41;;;5.08;100.00
62634;BME280;48704;50.534;6.442;2023-03-20T09:33:50;95886.78;;;5.22;100.00
62634;BME280;48704;50.534;6.442;2023-03-20T09:36:15;95887.47;;;5.26;100.00
62634;BME280;48704;50.534;6.442;2023-03-20T09:38:41;95880.84;;;5.53;100.00
62634;BME280;48704;50.534;6.442;2023-03-20T09:41:14;95884.41;;;5.66;100.00
62634;BME280;48704;50.534;6.442;2023-03-20T09:52:00;95885.19;;;6.46;100.00
62634;BME280;48704;50.534;6.442;2023-03-20T09:54:41;95876.81;;;5.83;100.00
62634;BME280;48704;50.534;6.442;2023-03-20T09:57:45;95874.44;;;5.56;100.00
62634;BME280;48704;50.534;6.442;2023-03-20T10:00:16;95881.06;;;5.29;100.00
62634;BME280;48704;50.534;6.442;2023-03-20T10:02:50;95876.19;;;5.50;100.00
62634;BME280;48704;50.534;6.442;2023-03-20T10:05:26;95887.69;;;5.61;100.00
62634;BME280;48704;50.534;6.442;2023-03-20T10:08:01;95876.03;;;5.82;100.00
62634;BME280;48704;50.534;6.442;2023-03-20T10:10:51;95880.84;;;5.53;100.00
62634;BME280;48704;50.534;6.442;2023-03-20T10:13:41;95878.81;;;5.41;100.00
62634;BME280;48704;50.534;6.442;2023-03-20T10:16:26;95892.97;;;5.43;100.00
62634;BME280;48704;50.534;6.442;2023-03-20T10:19:26;95893.25;;;5.32;100.00
62634;BME280;48704;50.534;6.442;2023-03-20T10:22:10;95893.41;;;5.41;100.00
62634;BME280;48704;50.534;6.442;2023-03-20T10:24:58;95889.47;;;5.55;100.00
62634;BME280;48704;50.534;6.442;2023-03-20T10:27:36;95892.78;;;5.62;100.00
62634;BME280;48704;50.534;6.442;2023-03-20T10:30:31;95889.81;;;5.98;100.00
62634;BME280;48704;50.534;6.442;2023-03-20T10:41:34;95880.97;;;6.03;100.00
62634;BME280;48704;50.534;6.442;2023-03-20T10:44:01;95880.91;;;5.78;100.00
62634;BME280;48704;50.534;6.442;2023-03-20T10:46:29;95884.84;;;5.64;100.00
62634;BME280;48704;50.534;6.442;2023-03-20T10:51:23;95887.13;;;5.24;100.00
62634;BME280;48704;50.534;6.442;2023-03-20T10:54:04;95882.28;;;5.28;100.00
62634;BME280;48704;50.534;6.442;2023-03-20T10:57:03;95879.34;;;5.35;100.00
62634;BME280;48704;50.534;6.442;2023-03-20T10:59:38;95888.03;;;5.50;100.00
62634;BME280;48704;50.534;6.442;2023-03-20T11:02:12;95884.81;;;5.52;100.00
62634;BME280;48704;50.534;6.442;2023-03-20T11:04:38;95887.78;;;5.45;100.00
62634;BME280;48704;50.534;6.442;2023-03-20T11:07:24;95886.47;;;5.49;100.00
62634;BME280;48704;50.534;6.442;2023-03-20T11:10:08;95886.44;;;5.20;100.00
62634;BME280;48704;50.534;6.442;2023-03-20T11:12:42;95884.94;;;5.19;100.00
62634;BME280;48704;50.534;6.442;2023-03-20T11:15:19;95884.16;;;5.19;100.00
62634;BME280;48704;50.534;6.442;2023-03-20T11:17:57;95881.13;;;5.13;100.00
62634;BME280;48704;50.534;6.442;2023-03-20T11:20:23;95888.75;;;4.93;100.00
62634;BME280;48704;50.534;6.442;2023-03-20T11:22:50;95878.41;;;4.97;100.00
62634;BME280;48704;50.534;6.442;2023-03-20T11:27:55;95866.97;;;5.11;100.00
62634;BME280;48704;50.534;6.442;2023-03-20T11:30:23;95861.75;;;5.29;100.00
62634;BME280;48704;50.534;6.442;2023-03-20T11:32:54;95863.00;;;5.12;100.00
62634;BME280;48704;50.534;6.442;2023-03-20T11:35:29;95864.66;;;5.38;100.00
62634;BME280;48704;50.534;6.442;2023-03-20T11:38:13;95863.94;;;5.63;100.00
62634;BME280;48704;50.534;6.442;2023-03-20T11:40:40;95871.50;;;5.76;100.00
62634;BME280;48704;50.534;6.442;2023-03-20T11:43:17;95859.91;;;5.81;100.00
62634;BME280;48704;50.534;6.442;2023-03-20T11:45:59;95862.75;;;5.77;100.00
62634;BME280;48704;50.534;6.442;2023-03-20T11:48:40;95857.28;;;5.61;100.00
62634;BME280;48704;50.534;6.442;2023-03-20T11:51:09;95862.03;;;5.48;100.00
62634;BME280;48704;50.534;6.442;2023-03-20T11:53:59;95852.03;;;5.37;100.00
62634;BME280;48704;50.534;6.442;2023-03-20T11:56:36;95855.16;;;5.40;100.00
62634;BME280;48704;50.534;6.442;2023-03-20T11:59:13;95850.50;;;5.36;100.00
62634;BME280;48704;50.534;6.442;2023-03-20T12:02:13;95845.25;;;5.55;100.00
62634;BME280;48704;50.534;6.442;2023-03-20T12:04:45;95830.94;;;5.44;100.00
62634;BME280;48704;50.534;6.442;2023-03-20T12:07:32;95842.25;;;5.62;100.00
62634;BME280;48704;50.534;6.442;2023-03-20T12:10:11;95840.59;;;5.52;100.00
62634;BME280;48704;50.534;6.442;2023-03-20T12:12:51;95844.09;;;5.40;100.00
62634;BME280;48704;50.534;6.442;2023-03-20T12:22:57;95814.50;;;5.53;100.00
62634;BME280;48704;50.534;6.442;2023-03-20T12:26:02;95807.84;;;5.37;100.00
62634;BME280;48704;50.534;6.442;2023-03-20T12:31:25;95804.44;;;5.59;100.00
62634;BME280;48704;50.534;6.442;2023-03-20T12:34:04;95803.19;;;5.89;100.00
62634;BME280;48704;50.534;6.442;2023-03-20T12:36:38;95801.72;;;5.97;100.00
62634;BME280;48704;50.534;6.442;2023-03-20T12:39:19;95790.47;;;5.91;100.00
62634;BME280;48704;50.534;6.442;2023-03-20T12:42:03;95791.88;;;6.21;100.00
62634;BME280;48704;50.534;6.442;2023-03-20T12:58:24;95769.38;;;6.79;100.00
62634;BME280;48704;50.534;6.442;2023-03-20T13:07:02;95774.97;;;7.01;100.00
62634;BME280;48704;50.534;6.442;2023-03-20T13:12:34;95779.78;;;7.31;100.00
62634;BME280;48704;50.534;6.442;2023-03-20T13:15:10;95759.41;;;7.25;100.00
62634;BME280;48704;50.534;6.442;2023-03-20T13:20:22;95755.13;;;7.02;100.00
62634;BME280;48704;50.534;6.442;2023-03-20T13:25:50;95744.66;;;7.28;100.00
62634;BME280;48704;50.534;6.442;2023-03-20T13:55:20;95755.50;;;7.35;100.00
62634;BME280;48704;50.534;6.442;2023-03-20T14:00:40;95751.09;;;7.25;100.00
62634;BME280;48704;50.534;6.442;2023-03-20T14:03:26;95747.97;;;7.45;100.00
62634;BME280;48704;50.534;6.442;2023-03-20T14:05:53;95747.91;;;7.58;100.00
62634;BME280;48704;50.534;6.442;2023-03-20T14:13:53;95760.00;;;7.73;100.00
62634;BME280;48704;50.534;6.442;2023-03-20T14:16:19;95754.47;;;7.82;100.00
62634;BME280;48704;50.534;6.442;2023-03-20T14:19:03;95759.13;;;7.85;100.00
62634;BME280;48704;50.534;6.442;2023-03-20T14:21:29;95747.91;;;7.58;100.00
62634;BME280;48704;50.534;6.442;2023-03-20T14:24:03;95747.97;;;7.45;100.00
62634;BME280;48704;50.534;6.442;2023-03-20T14:26:33;95751.31;;;7.62;100.00
62634;BME280;48704;50.534;6.442;2023-03-20T14:29:18;95752.22;;;7.59;100.00
62634;BME280;48704;50.534;6.442;2023-03-20T14:31:47;95742.00;;;7.78;100.00
62634;BME280;48704;50.534;6.442;2023-03-20T14:34:17;95743.69;;;7.84;100.00
62634;BME280;48704;50.534;6.442;2023-03-20T14:37:02;95747.97;;;8.07;100.00
62634;BME280;48704;50.534;6.442;2023-03-20T14:40:12;95745.78;;;8.02;100.00
62634;BME280;48704;50.534;6.442;2023-03-20T14:45:30;95743.50;;;7.38;100.00
62634;BME280;48704;50.534;6.442;2023-03-20T14:48:06;95751.09;;;7.25;100.00
62634;BME280;48704;50.534;6.442;2023-03-20T14:50:38;95752.50;;;7.08;100.00
62634;BME280;48704;50.534;6.442;2023-03-20T14:53:21;95742.34;;;7.05;100.00
62634;BME280;48704;50.534;6.442;2023-03-20T15:03:48;95736.94;;;7.01;100.00
62634;BME280;48704;50.534;6.442;2023-03-20T15:06:17;95737.19;;;7.16;100.00
62634;BME280;48704;50.534;6.442;2023-03-20T15:08:45;95730.16;;;7.24;100.00
62634;BME280;48704;50.534;6.442;2023-03-20T15:11:13;95730.53;;;7.35;100.00
62634;BME280;48704;50.534;6.442;2023-03-20T15:13:39;95720.03;;;7.30;100.00
62634;BME280;48704;50.534;6.442;2023-03-20T15:16:06;95722.16;;;7.26;100.00
62634;BME280;48704;50.534;6.442;2023-03-20T15:18:38;95724.28;;;7.22;100.00
62634;BME280;48704;50.534;6.442;2023-03-20T15:23:45;95725.91;;;7.32;100.00
62634;BME280;48704;50.534;6.442;2023-03-20T15:26:15;95728.81;;;7.07;100.00
62634;BME280;48704;50.534;6.442;2023-03-20T15:28:42;95711.66;;;7.21;100.00
62634;BME280;48704;50.534;6.442;2023-03-20T15:31:20;95715.66;;;7.20;100.00
62634;BME280;48704;50.534;6.442;2023-03-20T15:33:47;95707.13;;;7.36;100.00
62634;BME280;48704;50.534;6.442;2023-03-20T15:36:18;95707.84;;;7.59;100.00
62634;BME280;48704;50.534;6.442;2023-03-20T15:38:45;95707.25;;;7.64;100.00
62634;BME280;48704;50.534;6.442;2023-03-20T15:41:25;95697.31;;;7.45;100.00